ADDS METAR Data INFO
IDs: Format: Raw Decoded Include TAF

Data at: 2319 UTC 15 Jul 2018

KTAZ 152255Z AUTO 00000KT 10SM CLR 29/24 A2993 RMK AO2 LTG DSNT S T02910238
KTAZ 152235Z AUTO 14003KT 10SM CLR 29/24 A2994 RMK AO2 T02890239
KTAZ 152215Z AUTO 00000KT 10SM SCT055 SCT065 29/23 A2994 RMK AO2 T02920233
KTAZ 152155Z AUTO 23003KT 10SM SCT048 SCT055 BKN075 29/24 A2995 RMK AO2 T02920236
KTAZ 152135Z AUTO 00000KT 10SM SCT040 SCT055 OVC065 29/24 A2995 RMK AO2 LTG DSNT S T02930239
KTAZ 152115Z AUTO 25004KT 10SM SCT039 OVC065 29/24 A2996 RMK AO2 T02930239
KTAZ 152055Z AUTO 18003KT 10SM SCT026 BKN050 OVC065 29/24 A2996 RMK AO2 T02860240
KTAZ 152035Z AUTO 16005KT 10SM SCT026 BKN033 28/24 A2997 RMK AO2 T02810242
KTAZ 152015Z AUTO 18004KT 10SM SCT024 BKN033 BKN055 28/24 A2997 RMK AO2 LTG DSNT S T02830239
KTAZ 151955Z AUTO 19004KT 10SM BKN022 BKN030 BKN050 29/24 A2998 RMK AO2 LTG DSNT S T02850244
KTAZ 151935Z AUTO 20004KT 10SM SCT022 BKN050 OVC070 28/24 A2998 RMK AO2 LTG DSNT S T02830236
KTAZ 151915Z AUTO 20004KT 10SM BKN022 BKN026 OVC060 28/24 A2999 RMK AO2 LTG DSNT S T02780239
KTAZ 151855Z AUTO 20005KT 10SM BKN020 BKN041 OVC060 27/24 A2999 RMK AO2 T02740237
KTAZ 151835Z AUTO 22005KT 10SM BKN018 OVC050 28/24 A2999 RMK AO2 T02760243
KTAZ 151815Z AUTO 24007KT 10SM BKN016 BKN050 OVC055 27/24 A3000 RMK AO2 LTG DSNT SW T02700237
KTAZ 151755Z AUTO 20006KT 10SM SCT016 OVC050 27/24 A3000 RMK AO2 LTG DSNT SW T02710240 10271 20216
KTAZ 151735Z AUTO 19007KT 10SM SCT014 OVC050 27/24 A3000 RMK AO2 T02660236
KTAZ 151715Z AUTO 20006KT 10SM SCT014 OVC050 27/24 A3000 RMK AO2 T02650239
KTAZ 151655Z AUTO 22007KT 10SM SCT014 OVC050 26/24 A3000 RMK AO2 T02630235
KTAZ 151635Z AUTO 20008KT 10SM BKN012 BKN018 OVC050 26/24 A3001 RMK AO2 T02610237
KTAZ 151615Z AUTO 21006KT 10SM BKN012 BKN018 OVC050 26/24 A3001 RMK AO2 T02640240
KTAZ 151555Z AUTO 20006KT 10SM BKN012 OVC050 25/23 A3001 RMK AO2 T02540234
KTAZ 151535Z AUTO 20009KT 10SM OVC012 25/23 A3001 RMK AO2 T02530231
KTAZ 151515Z AUTO 18007KT 10SM BKN012 OVC017 25/23 A3001 RMK AO2 T02520234
KTAZ 151455Z AUTO 17007KT 10SM OVC014 25/23 A3001 RMK AO2 T02450232
KTAZ 151435Z AUTO 17007KT 10SM BKN011 OVC037 25/23 A3001 RMK AO2 T02450230
KTAZ 151415Z AUTO 16007KT 10SM BKN007 BKN037 BKN055 25/23 A3002 RMK AO2 T02450231
KTAZ 151355Z AUTO 16007KT 10SM SCT007 BKN045 24/23 A3001 RMK AO2 T02420233
KTAZ 151335Z AUTO 15006KT 10SM SCT005 SCT034 BKN039 23/23 A3002 RMK AO2 T02330229
KTAZ 151315Z AUTO 15006KT 10SM SCT003 BKN034 OVC040 23/23 A3002 RMK AO2 T02280227
KTAZ 151255Z AUTO 14005KT 7SM BKN003 BKN034 BKN039 23/23 A3002 RMK AO2 T02250225
KTAZ 151235Z AUTO 13004KT 7SM BKN003 BKN050 22/22 A3002 RMK AO2 T02210221
KTAZ 151215Z AUTO 12003KT 5SM BR SCT003 BKN050 22/22 A3002 RMK AO2 T02180218
KTAZ 151155Z AUTO 15003KT 5SM BR BKN050 22/22 A3001 RMK AO2 60055 70085 T02160216 10218 20212
KTAZ 151135Z AUTO 11004KT 5SM BR OVC050 22/22 A3001 RMK AO2 T02150215
KTAZ 151115Z AUTO 14004KT 5SM BR SCT048 OVC055 22/22 A3001 RMK AO2 T02150215
KTAZ 151055Z AUTO 16004KT 5SM BR SCT012 BKN048 OVC110 21/21 A3001 RMK AO2 P0051 T02130213
KTAZ 151035Z AUTO 11008KT 1/2SM +TSRA BKN015 OVC047 21/21 A2999 RMK AO2 LTG DSNT ALQS P0050 T02130213
KTAZ 151015Z AUTO 00000KT 7SM SCT048 SCT060 BKN080 21/21 A3000 RMK AO2 LTG DSNT NW T02130213
KTAZ 150955Z AUTO 10003KT 7SM VCTS SCT015 SCT050 SCT060 21/21 A3000 RMK AO2 P0001 T02130213
KTAZ 150935Z AUTO 00000KT 7SM DZ BKN015 BKN048 OVC100 21/21 A3001 RMK AO2 LTG DSNT SW P0001 T02130213
KTAZ 150915Z AUTO 00000KT 7SM RA BKN017 BKN050 OVC120 21/21 A3001 RMK AO2 LTG DSNT SW P0001 T02130213
KTAZ 150855Z AUTO 11003KT 7SM RA SCT100 SCT120 21/21 A3001 RMK AO2 P0003 60003 T02130213
KTAZ 150835Z AUTO 12003KT 7SM RA SCT110 21/21 A3001 RMK AO2 P0001 T02140214
KTAZ 150815Z AUTO 00000KT 10SM -RA SCT095 22/22 A3002 RMK AO2 T02150215
KTAZ 150755Z AUTO 00000KT 10SM BKN095 22/22 A3002 RMK AO2 T02150215
KTAZ 150735Z AUTO 00000KT 10SM SCT095 22/22 A3000 RMK AO2 T02160216
KTAZ 150715Z AUTO 00000KT 10SM SCT095 BKN110 22/22 A3001 RMK AO2 T02160216
KTAZ 150655Z AUTO 04003KT 10SM BKN095 OVC110 22/22 A3001 RMK AO2 T02170217
KTAZ 150635Z AUTO 04005KT 10SM BKN095 22/22 A3000 RMK AO2 T02160216
KTAZ 150615Z AUTO 00000KT 10SM SCT095 22/22 A2999 RMK AO2 T02150215
KTAZ 150555Z AUTO 19003KT 10SM SCT110 22/22 A2999 RMK AO2 LTG DSNT SW 60024 T02160215 10219 20210 402930210
KTAZ 150535Z AUTO 21005KT 10SM SCT120 22/22 A2999 RMK AO2 T02160215
KTAZ 150515Z AUTO 20007KT 10SM CLR 22/22 A3000 RMK AO2 T02160215
KTAZ 150455Z AUTO 21009KT 10SM CLR 22/21 A3000 RMK AO2 LTG DSNT S T02160212
KTAZ 150435Z AUTO 21008KT 10SM CLR 22/21 A3001 RMK AO2 LTG DSNT S T02160212
KTAZ 150415Z AUTO 20010KT 10SM CLR 21/21 A3001 RMK AO2 T02130211
KTAZ 150355Z AUTO 20006KT 10SM CLR 21/21 A3000 RMK AO2 T02100210
KTAZ 150335Z AUTO 21004KT 10SM SCT002 21/21 A2999 RMK AO2 LTG DSNT S T02100210
KTAZ 150315Z AUTO 19006KT 10SM CLR 21/21 A2999 RMK AO2 LTG DSNT S T02100210
KTAZ 150255Z AUTO 17005KT 10SM CLR 21/21 A2999 RMK AO2 P0001 60024 T02110211
KTAZ 150235Z AUTO 17007KT 10SM SCT110 21/21 A2999 RMK AO2 LTG DSNT SW P0001 T02100210
KTAZ 150215Z AUTO 00000KT 10SM -RA SCT090 BKN110 21/21 A3000 RMK AO2 P0001 T02130213
KTAZ 150155Z AUTO 13005KT 10SM RA SCT090 OVC110 22/22 A3002 RMK AO2 P0010 T02150215
KTAZ 150135Z AUTO 00000KT 10SM -RA OVC110 21/21 A3005 RMK AO2 P0009 T02140212
KTAZ 150115Z AUTO 32004KT 7SM +TSRA SCT070 SCT090 OVC110 22/21 A3006 RMK AO2 LTG DSNT ALQS P0004 T02150212
KTAZ 150055Z AUTO 35007KT 7SM TSRA OVC110 22/21 A3005 RMK AO2 LTG DSNT ALQS P0013 T02150213
KTAZ 150035Z AUTO 03008KT 5SM TSRA OVC110 22/22 A3006 RMK AO2 LTG DSNT ALQS P0008 T02160216
KTAZ 150015Z AUTO 02008KT 7SM TSRA SCT047 SCT065 OVC110 22/22 A3006 RMK AO2 LTG DSNT ALQS P0002 T02190217
KTAZ 142355Z AUTO 27003KT 4SM TSRA SCT050 BKN075 OVC090 22/22 A3006 RMK AO2 LTG DSNT ALQS P0006 60006 T02170215 10293 20217
KTAZ 142335Z AUTO 22003KT 10SM TSRA BKN055 OVC075 22/21 A3005 RMK AO2 LTG DSNT ALQS T02200213
KTAZ 142315Z AUTO 27009G16KT 10SM -TSRA SCT028 OVC055 24/20 A3005 RMK AO2 LTG DSNT ALQS T02360203
KTAZ 142255Z AUTO 28010G15KT 10SM TS SCT028 SCT055 BKN075 25/21 A3005 RMK AO2 LTG DSNT SW THRU N T02450210
KTAZ 142235Z AUTO 14003KT 10SM VCTS SCT120 24/21 A3000 RMK AO2 LTG DSNT S THRU NW T02440208
KTAZ 142215Z AUTO 17005KT 10SM CLR 25/22 A3002 RMK AO2 LTG DSNT SW AND W T02460217
KTAZ 142155Z AUTO 13008KT 10SM CLR 25/22 A2998 RMK AO2 LTG DSNT SE AND SW T02520220
KTAZ 142135Z AUTO 12008KT 10SM CLR 25/22 A2996 RMK AO2 LTG DSNT SW AND NW T02500219
KTAZ 142115Z AUTO 11007KT 10SM CLR 25/22 A2998 RMK AO2 LTG DSNT SE T02530219
KTAZ 142055Z AUTO 12008KT 10SM CLR 25/22 A3000 RMK AO2 LTG DSNT E AND W T02500216
KTAZ 142035Z AUTO 13010KT 10SM CLR 25/22 A3002 RMK AO2 LTG DSNT SE T02490220
KTAZ 142015Z AUTO 11010G17KT 10SM CLR 25/22 A3002 RMK AO2 LTG DSNT E T02500216
KTAZ 141955Z AUTO 13009KT 10SM SCT090 26/22 A3002 RMK AO2 LTG DSNT SE T02630221
KTAZ 141935Z AUTO 11013G23KT 10SM SCT070 SCT090 27/22 A3004 RMK AO2 LTG DSNT E AND SE T02690224
KTAZ 141910Z AUTO 11010KT 10SM SCT070 29/25 A3002 RMK AO2 LTG DSNT SE T02890245
KTAZ 141855Z AUTO 13011KT 10SM BKN070 29/25 A3002 RMK AO2 LTG DSNT E AND SE T02920250
KTAZ 141835Z AUTO 11010G15KT 10SM SCT070 28/24 A3004 RMK AO2 LTG DSNT E THRU S T02830239
KTAZ 141815Z AUTO 09009KT 10SM CLR 28/24 A3004 RMK AO2 LTG DSNT E THRU S T02780237
KTAZ 141755Z AUTO 07010G14KT 10SM CLR 28/24 A3005 RMK AO2 LTG DSNT E THRU S T02780240 10291 20235
KTAZ 141735Z AUTO 10012KT 10SM SCT014 SCT075 SCT090 28/25 A3005 RMK AO2 LTG DSNT NE THRU S T02830246
KTAZ 141715Z AUTO 08010KT 10SM VCTS SCT018 SCT065 SCT075 28/25 A3006 RMK AO2 LTG DSNT NE AND E T02810246
KTAZ 141655Z AUTO 09005KT 10SM TS BKN065 BKN090 29/24 A3006 RMK AO2 LTG DSNT N THRU E T02850244
KTAZ 141635Z AUTO 11005KT 10SM BKN065 BKN075 29/25 A3005 RMK AO2 LTG DSNT NW THRU E T02870254
KTAZ 141615Z AUTO 04004KT 10SM VCTS BKN070 BKN095 28/25 A3006 RMK AO2 LTG DSNT N THRU SE T02830251
KTAZ 141555Z AUTO 00000KT 10SM TS OVC060 27/25 A3006 RMK AO2 LTG DSNT NW THRU NE T02740247
KTAZ 141535Z AUTO 00000KT 10SM SCT050 OVC060 27/24 A3005 RMK AO2 LTG DSNT W THRU NE T02720242
KTAZ 141515Z AUTO 00000KT 7SM -VCTSRA SCT047 BKN080 OVC100 27/24 A3005 RMK AO2 LTG DSNT ALQS T02670239
KTAZ 141455Z AUTO 00000KT 10SM VCTS SCT090 BKN110 28/23 A3004 RMK AO2 LTG DSNT N AND NE T02790231
KTAZ 141435Z AUTO 00000KT 10SM SCT070 SCT075 SCT090 27/23 A3005 RMK AO2 LTG DSNT NW THRU NE T02700234
KTAZ 141415Z AUTO 00000KT 10SM BKN070 BKN090 26/23 A3005 RMK AO2 LTG DSNT N AND NE T02640226
KTAZ 141355Z AUTO 00000KT 10SM BKN070 BKN080 BKN110 26/23 A3005 RMK AO2 LTG DSNT N AND NE T02630228
KTAZ 141335Z AUTO 21003KT 10SM VCTS BKN070 BKN090 26/23 A3005 RMK AO2 LTG DSNT NW THRU NE T02580227
KTAZ 141315Z AUTO 19007KT 10SM VCTS SCT090 26/23 A3003 RMK AO2 LTG DSNT SW THRU N T02580226
KTAZ 141255Z AUTO 18007KT 10SM VCTS CLR 24/22 A3003 RMK AO2 LTG DSNT SW THRU N T02420215
KTAZ 141235Z AUTO 17008KT 10SM CLR 24/21 A3003 RMK AO2 LTG DSNT W THRU N T02410213
KTAZ 141215Z AUTO 18006KT 10SM CLR 24/21 A3003 RMK AO2 LTG DSNT N AND NW T02410210
KTAZ 141155Z AUTO 16006KT 10SM CLR 24/21 A3003 RMK AO2 LTG DSNT NW T02350209 10235 20215
KTAZ 141135Z AUTO 16007KT 10SM SCT070 23/20 A3003 RMK AO2 LTG DSNT NW T02290204